sensor_id;sensor_type;location;lat;lon;timestamp;pressure;altitude;pressure_sealevel;temperature;humidity
48774;BME280;34576;0.000;0.000;2023-03-20T00:02:48;96923.25;;;16.78;68.32
48774;BME280;34576;0.000;0.000;2023-03-20T00:09:49;96930.97;;;16.79;68.52
48774;BME280;34576;0.000;0.000;2023-03-20T00:16:50;96932.56;;;16.80;68.53
48774;BME280;34576;0.000;0.000;2023-03-20T00:23:51;96935.50;;;16.84;68.25
48774;BME280;34576;0.000;0.000;2023-03-20T00:30:52;96932.06;;;16.83;67.00
48774;BME280;34576;0.000;0.000;2023-03-20T00:37:52;96938.44;;;16.87;68.35
48774;BME280;34576;0.000;0.000;2023-03-20T00:44:53;96942.16;;;16.86;68.07
48774;BME280;34576;0.000;0.000;2023-03-20T00:51:57;96941.91;;;16.88;68.56
48774;BME280;34576;0.000;0.000;2023-03-20T00:58:59;96949.31;;;16.86;67.90
48774;BME280;34576;0.000;0.000;2023-03-20T01:06:00;96946.66;;;16.86;67.94
48774;BME280;34576;0.000;0.000;2023-03-20T01:13:00;96940.53;;;16.85;68.26
48774;BME280;34576;0.000;0.000;2023-03-20T01:20:01;96942.41;;;16.85;67.77
48774;BME280;34576;0.000;0.000;2023-03-20T01:27:01;96944.25;;;16.84;67.41
48774;BME280;34576;0.000;0.000;2023-03-20T01:34:04;96948.50;;;16.85;67.93
48774;BME280;34576;0.000;0.000;2023-03-20T01:41:06;96951.16;;;16.85;68.17
48774;BME280;34576;0.000;0.000;2023-03-20T01:48:13;96957.53;;;16.84;68.16
48774;BME280;34576;0.000;0.000;2023-03-20T01:55:14;96950.91;;;16.87;67.13
48774;BME280;34576;0.000;0.000;2023-03-20T02:02:18;96950.13;;;16.86;67.98
48774;BME280;34576;0.000;0.000;2023-03-20T02:09:20;96948.50;;;16.85;67.94
48774;BME280;34576;0.000;0.000;2023-03-20T02:16:22;96953.31;;;16.83;67.32
48774;BME280;34576;0.000;0.000;2023-03-20T02:38:32;96963.69;;;16.90;67.70
48774;BME280;34576;0.000;0.000;2023-03-20T02:45:27;96966.09;;;16.91;65.47
48774;BME280;34576;0.000;0.000;2023-03-20T02:52:58;96970.63;;;16.91;67.01
48774;BME280;34576;0.000;0.000;2023-03-20T03:07:13;96979.59;;;16.85;68.15
48774;BME280;34576;0.000;0.000;2023-03-20T03:21:48;96980.72;;;16.94;67.96
48774;BME280;34576;0.000;0.000;2023-03-20T03:28:51;96991.63;;;16.93;68.71
48774;BME280;34576;0.000;0.000;2023-03-20T03:35:55;96999.59;;;16.93;68.88
48774;BME280;34576;0.000;0.000;2023-03-20T03:50:06;97013.13;;;16.91;68.96
48774;BME280;34576;0.000;0.000;2023-03-20T03:57:07;97013.91;;;16.91;69.07
48774;BME280;34576;0.000;0.000;2023-03-20T04:04:09;97008.59;;;16.91;68.81
48774;BME280;34576;0.000;0.000;2023-03-20T04:11:13;97001.72;;;16.90;68.77
48774;BME280;34576;0.000;0.000;2023-03-20T04:18:15;96995.59;;;16.90;68.86
48774;BME280;34576;0.000;0.000;2023-03-20T04:25:21;96990.00;;;16.91;68.91
48774;BME280;34576;0.000;0.000;2023-03-20T04:32:25;96992.44;;;16.93;68.50
48774;BME280;34576;0.000;0.000;2023-03-20T04:39:35;96991.38;;;16.99;69.03
48774;BME280;34576;0.000;0.000;2023-03-20T04:46:36;96993.25;;;16.99;68.73
48774;BME280;34576;0.000;0.000;2023-03-20T04:53:43;97007.59;;;16.98;68.90
48774;BME280;34576;0.000;0.000;2023-03-20T05:00:44;97016.59;;;16.97;68.71
48774;BME280;34576;0.000;0.000;2023-03-20T05:07:44;97026.72;;;16.95;68.96
48774;BME280;34576;0.000;0.000;2023-03-20T05:14:50;97003.84;;;16.94;68.95
48774;BME280;34576;0.000;0.000;2023-03-20T05:22:12;96994.00;;;16.94;69.10
48774;BME280;34576;0.000;0.000;2023-03-20T05:29:13;97012.91;;;16.98;67.44
48774;BME280;34576;0.000;0.000;2023-03-20T05:36:31;97025.81;;;16.84;67.58
48774;BME280;34576;0.000;0.000;2023-03-20T05:44:00;97035.75;;;13.92;62.01
48774;BME280;34576;0.000;0.000;2023-03-20T05:51:21;97040.63;;;14.00;60.12
48774;BME280;34576;0.000;0.000;2023-03-20T05:58:27;97046.47;;;14.36;60.14
48774;BME280;34576;0.000;0.000;2023-03-20T06:05:35;97054.81;;;16.05;58.19
48774;BME280;34576;0.000;0.000;2023-03-20T06:12:37;97043.25;;;16.21;59.71
48774;BME280;34576;0.000;0.000;2023-03-20T06:19:38;97050.47;;;16.26;60.71
48774;BME280;34576;0.000;0.000;2023-03-20T06:26:39;97041.47;;;16.32;61.25
48774;BME280;34576;0.000;0.000;2023-03-20T06:33:44;97044.41;;;16.36;61.33
48774;BME280;34576;0.000;0.000;2023-03-20T06:40:44;97050.28;;;16.43;61.47
48774;BME280;34576;0.000;0.000;2023-03-20T06:47:49;97061.16;;;16.36;61.78
48774;BME280;34576;0.000;0.000;2023-03-20T06:54:50;97066.75;;;16.40;61.99
48774;BME280;34576;0.000;0.000;2023-03-20T07:01:51;97063.56;;;16.43;61.96
48774;BME280;34576;0.000;0.000;2023-03-20T07:08:51;97076.06;;;16.43;62.21
48774;BME280;34576;0.000;0.000;2023-03-20T07:15:53;97078.97;;;16.41;62.41
48774;BME280;34576;0.000;0.000;2023-03-20T07:22:55;97080.00;;;16.40;62.27
48774;BME280;34576;0.000;0.000;2023-03-20T07:29:58;97089.59;;;16.41;62.46
48774;BME280;34576;0.000;0.000;2023-03-20T07:36:59;97103.91;;;16.40;62.54
48774;BME280;34576;0.000;0.000;2023-03-20T07:44:01;97117.69;;;16.37;62.63
48774;BME280;34576;0.000;0.000;2023-03-20T07:51:31;97118.75;;;16.36;62.74
48774;BME280;34576;0.000;0.000;2023-03-20T07:58:31;97121.66;;;16.34;62.77
48774;BME280;34576;0.000;0.000;2023-03-20T08:05:35;97120.34;;;16.37;62.60
48774;BME280;34576;0.000;0.000;2023-03-20T08:12:35;97109.78;;;16.42;62.58
48774;BME280;34576;0.000;0.000;2023-03-20T08:19:35;97115.88;;;16.37;62.78
48774;BME280;34576;0.000;0.000;2023-03-20T08:26:37;97127.22;;;16.33;62.94
48774;BME280;34576;0.000;0.000;2023-03-20T08:33:37;97118.22;;;16.34;63.04
48774;BME280;34576;0.000;0.000;2023-03-20T08:40:41;97110.56;;;16.37;63.00
48774;BME280;34576;0.000;0.000;2023-03-20T08:47:41;97106.53;;;16.35;63.02
48774;BME280;34576;0.000;0.000;2023-03-20T08:54:42;97103.91;;;16.40;62.84
48774;BME280;34576;0.000;0.000;2023-03-20T09:01:42;97104.16;;;16.38;63.01
48774;BME280;34576;0.000;0.000;2023-03-20T09:08:42;97103.91;;;16.40;63.07
48774;BME280;34576;0.000;0.000;2023-03-20T09:15:42;97100.50;;;16.45;62.82
48774;BME280;34576;0.000;0.000;2023-03-20T09:22:43;97093.84;;;16.42;63.12
48774;BME280;34576;0.000;0.000;2023-03-20T09:29:44;97116.44;;;16.45;63.04
48774;BME280;34576;0.000;0.000;2023-03-20T09:36:44;97120.94;;;16.44;63.09
48774;BME280;34576;0.000;0.000;2023-03-20T09:44:01;97113.22;;;16.43;63.14
48774;BME280;34576;0.000;0.000;2023-03-20T09:51:50;97125.72;;;16.47;63.01
48774;BME280;34576;0.000;0.000;2023-03-20T09:58:34;97115.94;;;16.48;63.10
48774;BME280;34576;0.000;0.000;2023-03-20T10:05:38;97120.16;;;16.49;63.18
48774;BME280;34576;0.000;0.000;2023-03-20T10:12:49;97116.72;;;16.48;63.19
48774;BME280;34576;0.000;0.000;2023-03-20T10:27:04;97102.41;;;16.49;63.09
48774;BME280;34576;0.000;0.000;2023-03-20T10:41:18;97128.13;;;16.49;62.99
48774;BME280;34576;0.000;0.000;2023-03-20T10:55:25;97139.84;;;16.48;63.24
48774;BME280;34576;0.000;0.000;2023-03-20T11:02:28;97134.00;;;16.51;63.16
48774;BME280;34576;0.000;0.000;2023-03-20T11:09:29;97133.75;;;16.52;63.20
48774;BME280;34576;0.000;0.000;2023-03-20T11:16:30;97127.41;;;16.53;63.11
48774;BME280;34576;0.000;0.000;2023-03-20T11:23:33;97118.59;;;16.53;63.14
48774;BME280;34576;0.000;0.000;2023-03-20T11:30:38;97121.81;;;16.55;63.25
48774;BME280;34576;0.000;0.000;2023-03-20T11:37:42;97105.88;;;16.55;63.08
48774;BME280;34576;0.000;0.000;2023-03-20T11:44:45;97099.53;;;16.56;63.25
48774;BME280;34576;0.000;0.000;2023-03-20T11:51:59;97106.69;;;16.55;63.30
48774;BME280;34576;0.000;0.000;2023-03-20T12:06:14;97089.66;;;16.51;63.58
48774;BME280;34576;0.000;0.000;2023-03-20T12:13:16;97093.38;;;16.50;63.77
48774;BME280;34576;0.000;0.000;2023-03-20T12:20:25;97089.41;;;16.53;63.52
48774;BME280;34576;0.000;0.000;2023-03-20T12:27:28;97078.28;;;16.56;63.58
48774;BME280;34576;0.000;0.000;2023-03-20T12:34:34;97060.19;;;16.53;63.59
48774;BME280;34576;0.000;0.000;2023-03-20T12:42:23;97064.69;;;16.52;63.59
48774;BME280;34576;0.000;0.000;2023-03-20T12:49:07;97054.09;;;16.52;63.69
48774;BME280;34576;0.000;0.000;2023-03-20T13:10:35;97025.41;;;16.54;63.75
48774;BME280;34576;0.000;0.000;2023-03-20T13:17:38;97022.22;;;16.52;63.81
48774;BME280;34576;0.000;0.000;2023-03-20T13:32:13;96995.97;;;16.56;63.65
48774;BME280;34576;0.000;0.000;2023-03-20T13:46:23;96992.22;;;16.57;63.79
48774;BME280;34576;0.000;0.000;2023-03-20T13:53:29;96993.31;;;16.56;63.86
48774;BME280;34576;0.000;0.000;2023-03-20T14:00:35;97001.28;;;16.56;63.86
48774;BME280;34576;0.000;0.000;2023-03-20T14:07:38;96990.09;;;16.54;63.89
48774;BME280;34576;0.000;0.000;2023-03-20T14:14:57;96974.44;;;16.58;63.78
48774;BME280;34576;0.000;0.000;2023-03-20T14:21:58;96978.41;;;16.55;63.90
48774;BME280;34576;0.000;0.000;2023-03-20T14:29:18;96989.03;;;16.55;63.93
48774;BME280;34576;0.000;0.000;2023-03-20T14:36:20;96982.13;;;16.54;63.89
48774;BME280;34576;0.000;0.000;2023-03-20T14:50:31;96973.91;;;16.55;63.92
48774;BME280;34576;0.000;0.000;2023-03-20T14:57:33;96971.25;;;16.55;63.91
48774;BME280;34576;0.000;0.000;2023-03-20T15:04:35;96964.88;;;16.56;63.73
48774;BME280;34576;0.000;0.000;2023-03-20T15:11:36;96964.09;;;16.56;63.75
48774;BME280;34576;0.000;0.000;2023-03-20T15:18:38;96959.00;;;16.54;63.73
48774;BME280;34576;0.000;0.000;2023-03-20T15:25:46;96951.88;;;16.55;63.90
48774;BME280;34576;0.000;0.000;2023-03-20T15:32:47;96955.56;;;16.54;63.84
48774;BME280;34576;0.000;0.000;2023-03-20T15:39:49;96968.59;;;16.55;63.91
48774;BME280;34576;0.000;0.000;2023-03-20T15:46:51;96956.13;;;16.61;63.67
48774;BME280;34576;0.000;0.000;2023-03-20T15:53:52;96946.81;;;16.59;63.84
48774;BME280;34576;0.000;0.000;2023-03-20T16:00:53;96941.50;;;16.59;63.83
48774;BME280;34576;0.000;0.000;2023-03-20T16:07:53;96939.09;;;16.57;63.97
48774;BME280;34576;0.000;0.000;2023-03-20T16:14:54;96936.72;;;16.55;63.91
48774;BME280;34576;0.000;0.000;2023-03-20T16:21:55;96928.22;;;16.53;64.03
48774;BME280;34576;0.000;0.000;2023-03-20T16:28:58;96919.19;;;16.54;63.89
48774;BME280;34576;0.000;0.000;2023-03-20T16:35:58;96923.44;;;16.50;64.09
48774;BME280;34576;0.000;0.000;2023-03-20T16:43:11;96917.03;;;16.51;63.86
48774;BME280;34576;0.000;0.000;2023-03-20T16:57:19;96923.16;;;16.52;63.24
48774;BME280;34576;0.000;0.000;2023-03-20T17:04:21;96924.22;;;16.51;63.37
48774;BME280;34576;0.000;0.000;2023-03-20T17:11:26;96925.78;;;16.47;63.39
48774;BME280;34576;0.000;0.000;2023-03-20T17:18:27;96921.00;;;16.49;63.33
48774;BME280;34576;0.000;0.000;2023-03-20T17:25:27;96922.34;;;16.46;63.15
48774;BME280;34576;0.000;0.000;2023-03-20T17:32:28;96915.19;;;16.47;62.96
48774;BME280;34576;0.000;0.000;2023-03-20T17:39:28;96923.41;;;16.45;62.92
48774;BME280;34576;0.000;0.000;2023-03-20T17:46:29;96926.06;;;16.45;62.79
48774;BME280;34576;0.000;0.000;2023-03-20T17:53:30;96915.97;;;16.42;62.67
48774;BME280;34576;0.000;0.000;2023-03-20T18:00:30;96924.72;;;16.43;62.49
48774;BME280;34576;0.000;0.000;2023-03-20T18:07:31;96932.41;;;16.39;62.59
48774;BME280;34576;0.000;0.000;2023-03-20T18:14:31;96953.66;;;16.39;62.37
48774;BME280;34576;0.000;0.000;2023-03-20T18:21:31;96944.34;;;16.42;62.40
48774;BME280;34576;0.000;0.000;2023-03-20T18:28:32;96949.91;;;16.40;62.66
48774;BME280;34576;0.000;0.000;2023-03-20T18:35:32;96968.25;;;16.42;62.60
48774;BME280;34576;0.000;0.000;2023-03-20T18:42:33;96968.75;;;16.38;62.61
48774;BME280;34576;0.000;0.000;2023-03-20T18:49:33;96978.03;;;16.36;62.54
48774;BME280;34576;0.000;0.000;2023-03-20T18:56:37;96970.31;;;16.34;62.41
48774;BME280;34576;0.000;0.000;2023-03-20T19:03:38;96965.03;;;16.34;62.49
48774;BME280;34576;0.000;0.000;2023-03-20T19:10:40;96955.19;;;16.30;62.75
48774;BME280;34576;0.000;0.000;2023-03-20T19:17:42;96961.03;;;16.32;62.70
48774;BME280;34576;0.000;0.000;2023-03-20T19:24:43;96951.25;;;16.37;62.60
48774;BME280;34576;0.000;0.000;2023-03-20T19:31:43;96949.09;;;16.29;62.85
48774;BME280;34576;0.000;0.000;2023-03-20T19:38:43;96944.03;;;16.28;62.82
48774;BME280;34576;0.000;0.000;2023-03-20T19:45:43;96950.38;;;16.27;62.95
48774;BME280;34576;0.000;0.000;2023-03-20T19:52:44;96937.13;;;16.27;62.82
48774;BME280;34576;0.000;0.000;2023-03-20T19:59:44;96944.53;;;16.25;62.86
48774;BME280;34576;0.000;0.000;2023-03-20T20:06:45;96953.56;;;16.24;62.92
48774;BME280;34576;0.000;0.000;2023-03-20T20:13:45;96949.81;;;16.25;62.79
48774;BME280;34576;0.000;0.000;2023-03-20T20:20:45;96944.00;;;16.22;62.88
48774;BME280;34576;0.000;0.000;2023-03-20T20:27:49;96942.38;;;16.21;62.88
48774;BME280;34576;0.000;0.000;2023-03-20T20:34:49;96932.38;;;16.34;62.66
48774;BME280;34576;0.000;0.000;2023-03-20T20:41:50;96931.31;;;16.40;62.72
48774;BME280;34576;0.000;0.000;2023-03-20T20:48:50;96938.81;;;16.48;63.05
48774;BME280;34576;0.000;0.000;2023-03-20T20:55:51;96938.56;;;16.50;63.07
48774;BME280;34576;0.000;0.000;2023-03-20T21:02:51;96938.56;;;16.50;63.33
48774;BME280;34576;0.000;0.000;2023-03-20T21:09:52;96947.59;;;16.54;63.16
48774;BME280;34576;0.000;0.000;2023-03-20T21:16:52;96956.34;;;16.54;63.19
48774;BME280;34576;0.000;0.000;2023-03-20T21:23:59;96943.06;;;16.54;62.88
48774;BME280;34576;0.000;0.000;2023-03-20T21:31:00;96948.94;;;16.56;63.02
48774;BME280;34576;0.000;0.000;2023-03-20T21:38:00;96939.16;;;16.67;62.94
48774;BME280;34576;0.000;0.000;2023-03-20T21:45:00;96940.19;;;16.61;64.64
48774;BME280;34576;0.000;0.000;2023-03-20T21:52:01;96937.28;;;16.63;64.92
48774;BME280;34576;0.000;0.000;2023-03-20T21:59:02;96944.97;;;16.64;65.91
48774;BME280;34576;0.000;0.000;2023-03-20T22:06:03;96938.88;;;16.64;66.45
48774;BME280;34576;0.000;0.000;2023-03-20T22:13:03;96927.72;;;16.67;66.93
48774;BME280;34576;0.000;0.000;2023-03-20T22:20:04;96918.72;;;16.68;67.37
48774;BME280;34576;0.000;0.000;2023-03-20T22:27:04;96926.41;;;16.69;67.10
48774;BME280;34576;0.000;0.000;2023-03-20T22:34:05;96915.00;;;16.69;67.23
48774;BME280;34576;0.000;0.000;2023-03-20T22:41:05;96909.69;;;16.69;68.15
48774;BME280;34576;0.000;0.000;2023-03-20T22:48:05;96894.00;;;16.67;67.58
48774;BME280;34576;0.000;0.000;2023-03-20T22:55:06;96907.06;;;16.84;67.10
48774;BME280;34576;0.000;0.000;2023-03-20T23:02:06;96898.00;;;16.75;67.57
48774;BME280;34576;0.000;0.000;2023-03-20T23:09:08;96896.97;;;16.76;67.36
48774;BME280;34576;0.000;0.000;2023-03-20T23:16:09;96884.72;;;16.75;67.94
48774;BME280;34576;0.000;0.000;2023-03-20T23:23:09;96883.69;;;16.76;67.67
48774;BME280;34576;0.000;0.000;2023-03-20T23:30:09;96880.47;;;16.74;68.05
48774;BME280;34576;0.000;0.000;2023-03-20T23:37:10;96868.78;;;16.75;67.48
48774;BME280;34576;0.000;0.000;2023-03-20T23:44:10;96864.53;;;16.74;68.19
48774;BME280;34576;0.000;0.000;2023-03-20T23:51:11;96851.50;;;16.72;68.33
48774;BME280;34576;0.000;0.000;2023-03-20T23:58:11;96858.69;;;16.72;68.37
